sensor_id;sensor_type;location;lat;lon;timestamp;temperature;humidity
314;DHT22;143;51.634;7.112;2023-02-28T00:01:23;3.10;69.40
314;DHT22;143;51.634;7.112;2023-02-28T00:03:49;3.10;72.80
314;DHT22;143;51.634;7.112;2023-02-28T00:06:15;3.00;74.70
314;DHT22;143;51.634;7.112;2023-02-28T00:08:41;3.00;77.60
314;DHT22;143;51.634;7.112;2023-02-28T00:11:09;2.80;71.90
314;DHT22;143;51.634;7.112;2023-02-28T00:13:37;2.60;85.70
314;DHT22;143;51.634;7.112;2023-02-28T00:16:08;2.80;91.40
314;DHT22;143;51.634;7.112;2023-02-28T00:18:34;2.70;93.60
314;DHT22;143;51.634;7.112;2023-02-28T00:21:00;2.90;97.10
314;DHT22;143;51.634;7.112;2023-02-28T00:23:26;2.80;98.80
314;DHT22;143;51.634;7.112;2023-02-28T00:25:53;2.40;99.90
314;DHT22;143;51.634;7.112;2023-02-28T00:28:18;2.80;99.90
314;DHT22;143;51.634;7.112;2023-02-28T00:30:44;2.80;99.90
314;DHT22;143;51.634;7.112;2023-02-28T00:33:10;2.80;99.90
314;DHT22;143;51.634;7.112;2023-02-28T00:35:36;2.60;99.90
314;DHT22;143;51.634;7.112;2023-02-28T00:38:02;2.60;99.90
314;DHT22;143;51.634;7.112;2023-02-28T00:40:28;2.40;99.90
314;DHT22;143;51.634;7.112;2023-02-28T00:42:54;2.60;99.90
314;DHT22;143;51.634;7.112;2023-02-28T00:45:19;2.50;99.90
314;DHT22;143;51.634;7.112;2023-02-28T00:47:45;2.40;99.90
314;DHT22;143;51.634;7.112;2023-02-28T00:50:12;2.60;99.90
314;DHT22;143;51.634;7.112;2023-02-28T00:52:38;2.40;99.90
314;DHT22;143;51.634;7.112;2023-02-28T00:55:04;2.60;99.90
314;DHT22;143;51.634;7.112;2023-02-28T00:57:30;2.60;99.90
314;DHT22;143;51.634;7.112;2023-02-28T00:59:55;2.50;98.40
314;DHT22;143;51.634;7.112;2023-02-28T01:02:22;2.30;98.00
314;DHT22;143;51.634;7.112;2023-02-28T01:04:48;2.50;99.90
314;DHT22;143;51.634;7.112;2023-02-28T01:07:14;2.20;99.30
314;DHT22;143;51.634;7.112;2023-02-28T01:09:40;2.30;98.00
314;DHT22;143;51.634;7.112;2023-02-28T01:12:08;2.60;97.70
314;DHT22;143;51.634;7.112;2023-02-28T01:14:34;2.60;97.90
314;DHT22;143;51.634;7.112;2023-02-28T01:17:00;2.30;97.20
314;DHT22;143;51.634;7.112;2023-02-28T01:19:26;2.10;95.80
314;DHT22;143;51.634;7.112;2023-02-28T01:21:52;2.60;94.70
314;DHT22;143;51.634;7.112;2023-02-28T01:24:18;2.50;89.60
314;DHT22;143;51.634;7.112;2023-02-28T01:26:44;2.60;93.00
314;DHT22;143;51.634;7.112;2023-02-28T01:29:10;2.10;93.40
314;DHT22;143;51.634;7.112;2023-02-28T01:31:36;2.40;88.30
314;DHT22;143;51.634;7.112;2023-02-28T01:34:02;2.20;84.70
314;DHT22;143;51.634;7.112;2023-02-28T01:36:28;2.50;83.50
314;DHT22;143;51.634;7.112;2023-02-28T01:38:54;2.20;83.90
314;DHT22;143;51.634;7.112;2023-02-28T01:41:26;2.10;69.80
314;DHT22;143;51.634;7.112;2023-02-28T01:43:59;2.40;76.30
314;DHT22;143;51.634;7.112;2023-02-28T01:46:25;2.30;81.40
314;DHT22;143;51.634;7.112;2023-02-28T01:49:14;2.10;69.40
314;DHT22;143;51.634;7.112;2023-02-28T01:51:50;2.30;62.90
314;DHT22;143;51.634;7.112;2023-02-28T01:54:24;2.20;59.80
314;DHT22;143;51.634;7.112;2023-02-28T01:56:57;2.30;51.30
314;DHT22;143;51.634;7.112;2023-02-28T01:59:33;2.20;49.70
314;DHT22;143;51.634;7.112;2023-02-28T02:02:00;2.40;52.70
314;DHT22;143;51.634;7.112;2023-02-28T02:04:32;2.20;46.10
314;DHT22;143;51.634;7.112;2023-02-28T02:06:59;2.30;58.90
314;DHT22;143;51.634;7.112;2023-02-28T02:09:25;2.30;66.30
314;DHT22;143;51.634;7.112;2023-02-28T02:11:51;2.30;72.40
314;DHT22;143;51.634;7.112;2023-02-28T02:14:39;2.10;72.60
314;DHT22;143;51.634;7.112;2023-02-28T02:17:10;2.00;88.90
314;DHT22;143;51.634;7.112;2023-02-28T02:23:07;1.90;95.00
314;DHT22;143;51.634;7.112;2023-02-28T02:34:17;2.10;99.80
314;DHT22;143;51.634;7.112;2023-02-28T02:42:26;1.60;99.90
314;DHT22;143;51.634;7.112;2023-02-28T02:45:11;1.90;99.90
314;DHT22;143;51.634;7.112;2023-02-28T02:47:39;1.60;98.50
314;DHT22;143;51.634;7.112;2023-02-28T02:50:11;1.60;98.20
314;DHT22;143;51.634;7.112;2023-02-28T02:52:43;1.50;98.90
314;DHT22;143;51.634;7.112;2023-02-28T02:55:12;1.60;99.90
314;DHT22;143;51.634;7.112;2023-02-28T02:57:45;1.60;99.90
314;DHT22;143;51.634;7.112;2023-02-28T03:00:14;1.40;96.30
314;DHT22;143;51.634;7.112;2023-02-28T03:02:41;1.40;94.40
314;DHT22;143;51.634;7.112;2023-02-28T03:05:17;1.50;92.70
314;DHT22;143;51.634;7.112;2023-02-28T03:07:44;1.50;86.10
314;DHT22;143;51.634;7.112;2023-02-28T03:13:15;1.40;73.00
314;DHT22;143;51.634;7.112;2023-02-28T03:15:55;1.40;67.60
314;DHT22;143;51.634;7.112;2023-02-28T03:18:57;1.60;69.10
314;DHT22;143;51.634;7.112;2023-02-28T03:24:28;1.30;54.20
314;DHT22;143;51.634;7.112;2023-02-28T03:27:09;1.40;47.90
314;DHT22;143;51.634;7.112;2023-02-28T03:29:42;1.40;48.90
314;DHT22;143;51.634;7.112;2023-02-28T03:32:30;1.40;50.40
314;DHT22;143;51.634;7.112;2023-02-28T03:35:11;1.40;51.10
314;DHT22;143;51.634;7.112;2023-02-28T03:37:40;1.70;46.80
314;DHT22;143;51.634;7.112;2023-02-28T03:40:13;1.40;44.90
314;DHT22;143;51.634;7.112;2023-02-28T03:42:42;1.40;48.90
314;DHT22;143;51.634;7.112;2023-02-28T03:45:18;1.40;48.00
314;DHT22;143;51.634;7.112;2023-02-28T03:47:51;1.50;46.80
314;DHT22;143;51.634;7.112;2023-02-28T03:50:26;1.40;43.40
314;DHT22;143;51.634;7.112;2023-02-28T03:55:19;1.40;35.40
314;DHT22;143;51.634;7.112;2023-02-28T04:00:40;1.40;37.40
314;DHT22;143;51.634;7.112;2023-02-28T04:03:08;1.40;44.40
314;DHT22;143;51.634;7.112;2023-02-28T04:05:50;1.40;36.90
314;DHT22;143;51.634;7.112;2023-02-28T04:08:17;1.40;35.10
314;DHT22;143;51.634;7.112;2023-02-28T04:10:45;1.40;33.70
314;DHT22;143;51.634;7.112;2023-02-28T04:13:14;1.40;33.60
314;DHT22;143;51.634;7.112;2023-02-28T04:15:40;1.10;30.00
314;DHT22;143;51.634;7.112;2023-02-28T04:18:06;1.20;27.60
314;DHT22;143;51.634;7.112;2023-02-28T04:20:32;1.20;24.90
314;DHT22;143;51.634;7.112;2023-02-28T04:22:57;1.30;26.40
314;DHT22;143;51.634;7.112;2023-02-28T04:25:23;1.40;25.40
314;DHT22;143;51.634;7.112;2023-02-28T04:27:49;1.10;25.20
314;DHT22;143;51.634;7.112;2023-02-28T04:30:14;1.10;26.00
314;DHT22;143;51.634;7.112;2023-02-28T04:32:40;1.20;29.70
314;DHT22;143;51.634;7.112;2023-02-28T04:35:06;1.20;35.40
314;DHT22;143;51.634;7.112;2023-02-28T04:37:32;1.20;36.20
314;DHT22;143;51.634;7.112;2023-02-28T04:40:00;1.10;36.40
314;DHT22;143;51.634;7.112;2023-02-28T04:42:26;1.20;40.30
314;DHT22;143;51.634;7.112;2023-02-28T04:44:52;1.20;40.50
314;DHT22;143;51.634;7.112;2023-02-28T04:47:18;1.20;42.60
314;DHT22;143;51.634;7.112;2023-02-28T04:49:43;1.10;46.10
314;DHT22;143;51.634;7.112;2023-02-28T04:52:09;1.20;48.10
314;DHT22;143;51.634;7.112;2023-02-28T04:54:35;1.10;47.30
314;DHT22;143;51.634;7.112;2023-02-28T04:57:01;1.20;46.30
314;DHT22;143;51.634;7.112;2023-02-28T04:59:27;1.20;37.10
314;DHT22;143;51.634;7.112;2023-02-28T05:01:52;1.30;38.40
314;DHT22;143;51.634;7.112;2023-02-28T05:04:18;1.00;49.30
314;DHT22;143;51.634;7.112;2023-02-28T05:06:44;1.10;62.50
314;DHT22;143;51.634;7.112;2023-02-28T05:09:10;1.20;58.40
314;DHT22;143;51.634;7.112;2023-02-28T05:11:39;1.10;59.50
314;DHT22;143;51.634;7.112;2023-02-28T05:14:09;1.10;58.60
314;DHT22;143;51.634;7.112;2023-02-28T05:16:35;1.00;65.50
314;DHT22;143;51.634;7.112;2023-02-28T05:19:01;0.90;73.10
314;DHT22;143;51.634;7.112;2023-02-28T05:21:37;0.80;75.30
314;DHT22;143;51.634;7.112;2023-02-28T05:24:14;1.10;79.90
314;DHT22;143;51.634;7.112;2023-02-28T05:26:41;1.10;83.70
314;DHT22;143;51.634;7.112;2023-02-28T05:29:08;1.00;85.30
314;DHT22;143;51.634;7.112;2023-02-28T05:31:34;1.00;85.90
314;DHT22;143;51.634;7.112;2023-02-28T05:34:00;1.00;85.40
314;DHT22;143;51.634;7.112;2023-02-28T05:36:26;1.00;79.30
314;DHT22;143;51.634;7.112;2023-02-28T05:38:52;0.80;83.20
314;DHT22;143;51.634;7.112;2023-02-28T05:41:19;1.00;83.00
314;DHT22;143;51.634;7.112;2023-02-28T05:43:45;0.90;84.10
314;DHT22;143;51.634;7.112;2023-02-28T05:46:11;0.90;85.90
314;DHT22;143;51.634;7.112;2023-02-28T05:48:39;1.10;86.40
314;DHT22;143;51.634;7.112;2023-02-28T05:51:06;1.00;89.50
314;DHT22;143;51.634;7.112;2023-02-28T05:53:32;0.70;90.00
314;DHT22;143;51.634;7.112;2023-02-28T05:55:58;0.80;90.90
314;DHT22;143;51.634;7.112;2023-02-28T05:58:24;0.70;92.70
314;DHT22;143;51.634;7.112;2023-02-28T06:00:57;0.90;93.60
314;DHT22;143;51.634;7.112;2023-02-28T06:03:23;0.80;94.90
314;DHT22;143;51.634;7.112;2023-02-28T06:05:49;0.70;97.50
314;DHT22;143;51.634;7.112;2023-02-28T06:08:15;0.80;99.50
314;DHT22;143;51.634;7.112;2023-02-28T06:10:41;0.80;99.90
314;DHT22;143;51.634;7.112;2023-02-28T06:13:07;0.70;99.90
314;DHT22;143;51.634;7.112;2023-02-28T06:15:32;0.80;99.90
314;DHT22;143;51.634;7.112;2023-02-28T06:17:58;0.80;99.90
314;DHT22;143;51.634;7.112;2023-02-28T06:20:26;0.70;99.90
314;DHT22;143;51.634;7.112;2023-02-28T06:22:58;0.80;99.90
314;DHT22;143;51.634;7.112;2023-02-28T06:25:27;0.70;99.90
314;DHT22;143;51.634;7.112;2023-02-28T06:27:53;0.80;99.90
314;DHT22;143;51.634;7.112;2023-02-28T06:30:20;0.80;99.90
314;DHT22;143;51.634;7.112;2023-02-28T06:32:50;0.70;99.90
314;DHT22;143;51.634;7.112;2023-02-28T06:35:16;0.90;99.90
314;DHT22;143;51.634;7.112;2023-02-28T06:37:42;0.80;99.90
314;DHT22;143;51.634;7.112;2023-02-28T06:40:09;0.70;99.90
314;DHT22;143;51.634;7.112;2023-02-28T06:42:35;0.80;99.90
314;DHT22;143;51.634;7.112;2023-02-28T06:45:01;0.70;99.90
314;DHT22;143;51.634;7.112;2023-02-28T06:47:30;0.70;99.90
314;DHT22;143;51.634;7.112;2023-02-28T06:49:55;0.90;99.90
314;DHT22;143;51.634;7.112;2023-02-28T06:52:21;0.90;99.90
314;DHT22;143;51.634;7.112;2023-02-28T06:54:47;1.00;99.90
314;DHT22;143;51.634;7.112;2023-02-28T06:57:26;1.10;99.90
314;DHT22;143;51.634;7.112;2023-02-28T06:59:52;1.00;99.90
314;DHT22;143;51.634;7.112;2023-02-28T07:02:18;1.00;99.90
314;DHT22;143;51.634;7.112;2023-02-28T07:04:43;1.00;99.90
314;DHT22;143;51.634;7.112;2023-02-28T07:07:10;1.00;99.90
314;DHT22;143;51.634;7.112;2023-02-28T07:09:35;1.00;99.90
314;DHT22;143;51.634;7.112;2023-02-28T07:12:01;1.00;99.90
314;DHT22;143;51.634;7.112;2023-02-28T07:14:27;1.20;99.90
314;DHT22;143;51.634;7.112;2023-02-28T07:16:52;1.20;99.90
314;DHT22;143;51.634;7.112;2023-02-28T07:19:18;1.20;99.90
314;DHT22;143;51.634;7.112;2023-02-28T07:21:44;1.20;99.90
314;DHT22;143;51.634;7.112;2023-02-28T07:24:10;1.20;99.90
314;DHT22;143;51.634;7.112;2023-02-28T07:26:36;1.20;99.90
314;DHT22;143;51.634;7.112;2023-02-28T07:29:02;1.30;99.90
314;DHT22;143;51.634;7.112;2023-02-28T07:31:27;1.40;99.90
314;DHT22;143;51.634;7.112;2023-02-28T07:33:53;1.40;99.90
314;DHT22;143;51.634;7.112;2023-02-28T07:36:19;1.60;99.90
314;DHT22;143;51.634;7.112;2023-02-28T07:38:46;1.40;99.90
314;DHT22;143;51.634;7.112;2023-02-28T07:41:18;1.60;99.90
314;DHT22;143;51.634;7.112;2023-02-28T07:43:44;1.80;99.90
314;DHT22;143;51.634;7.112;2023-02-28T07:46:12;1.60;99.90
314;DHT22;143;51.634;7.112;2023-02-28T07:48:38;1.60;99.90
314;DHT22;143;51.634;7.112;2023-02-28T07:51:04;2.00;99.90
314;DHT22;143;51.634;7.112;2023-02-28T07:53:29;2.20;99.90
314;DHT22;143;51.634;7.112;2023-02-28T07:56:00;1.90;99.90
314;DHT22;143;51.634;7.112;2023-02-28T07:58:27;2.20;99.90
314;DHT22;143;51.634;7.112;2023-02-28T08:00:53;2.50;99.90
314;DHT22;143;51.634;7.112;2023-02-28T08:03:20;2.60;94.50
314;DHT22;143;51.634;7.112;2023-02-28T08:05:46;2.60;76.40
314;DHT22;143;51.634;7.112;2023-02-28T08:08:12;2.70;55.30
314;DHT22;143;51.634;7.112;2023-02-28T08:10:37;2.60;37.30
314;DHT22;143;51.634;7.112;2023-02-28T08:13:03;3.00;24.60
314;DHT22;143;51.634;7.112;2023-02-28T08:15:29;3.00;9.80
314;DHT22;143;51.634;7.112;2023-02-28T08:17:55;3.00;1.00
314;DHT22;143;51.634;7.112;2023-02-28T08:20:25;3.40;1.00
314;DHT22;143;51.634;7.112;2023-02-28T08:22:50;3.20;1.00
314;DHT22;143;51.634;7.112;2023-02-28T08:25:16;3.50;1.00
314;DHT22;143;51.634;7.112;2023-02-28T08:27:42;3.60;1.00
314;DHT22;143;51.634;7.112;2023-02-28T08:30:11;3.60;1.00
314;DHT22;143;51.634;7.112;2023-02-28T08:32:37;4.10;1.00
314;DHT22;143;51.634;7.112;2023-02-28T08:35:03;4.40;1.00
314;DHT22;143;51.634;7.112;2023-02-28T08:37:29;4.10;1.00
314;DHT22;143;51.634;7.112;2023-02-28T08:39:54;4.60;1.00
314;DHT22;143;51.634;7.112;2023-02-28T08:42:20;4.70;1.00
314;DHT22;143;51.634;7.112;2023-02-28T08:44:46;4.90;1.00
314;DHT22;143;51.634;7.112;2023-02-28T08:47:12;4.90;1.00
314;DHT22;143;51.634;7.112;2023-02-28T08:49:37;5.10;1.00
314;DHT22;143;51.634;7.112;2023-02-28T08:52:03;5.20;1.00
314;DHT22;143;51.634;7.112;2023-02-28T08:54:29;5.20;1.00
314;DHT22;143;51.634;7.112;2023-02-28T08:56:57;5.30;1.00
314;DHT22;143;51.634;7.112;2023-02-28T08:59:22;5.60;1.00
314;DHT22;143;51.634;7.112;2023-02-28T09:01:48;5.70;1.00
314;DHT22;143;51.634;7.112;2023-02-28T09:04:14;5.90;1.00
314;DHT22;143;51.634;7.112;2023-02-28T09:06:40;6.20;1.00
314;DHT22;143;51.634;7.112;2023-02-28T09:09:05;6.40;1.00
314;DHT22;143;51.634;7.112;2023-02-28T09:11:33;6.50;1.00
314;DHT22;143;51.634;7.112;2023-02-28T09:14:00;6.50;1.00
314;DHT22;143;51.634;7.112;2023-02-28T09:16:26;6.70;1.00
314;DHT22;143;51.634;7.112;2023-02-28T09:18:51;6.80;1.00
314;DHT22;143;51.634;7.112;2023-02-28T09:21:18;6.70;1.00
314;DHT22;143;51.634;7.112;2023-02-28T09:23:45;6.90;1.00
314;DHT22;143;51.634;7.112;2023-02-28T09:26:20;7.30;1.00
314;DHT22;143;51.634;7.112;2023-02-28T09:28:46;7.50;1.00
314;DHT22;143;51.634;7.112;2023-02-28T09:31:17;7.70;1.00
314;DHT22;143;51.634;7.112;2023-02-28T09:33:48;7.70;1.00
314;DHT22;143;51.634;7.112;2023-02-28T09:36:15;7.70;1.00
314;DHT22;143;51.634;7.112;2023-02-28T09:38:40;7.70;1.00
314;DHT22;143;51.634;7.112;2023-02-28T09:41:15;7.90;1.00
314;DHT22;143;51.634;7.112;2023-02-28T09:43:46;8.00;1.00
314;DHT22;143;51.634;7.112;2023-02-28T09:48:48;7.90;1.00
314;DHT22;143;51.634;7.112;2023-02-28T09:51:37;7.60;1.00
314;DHT22;143;51.634;7.112;2023-02-28T09:54:12;7.60;1.00
314;DHT22;143;51.634;7.112;2023-02-28T09:56:45;7.80;1.00
314;DHT22;143;51.634;7.112;2023-02-28T09:59:42;7.60;1.00
314;DHT22;143;51.634;7.112;2023-02-28T10:05:17;8.20;1.00
314;DHT22;143;51.634;7.112;2023-02-28T10:10:23;7.80;1.00
314;DHT22;143;51.634;7.112;2023-02-28T10:12:53;8.20;1.00
314;DHT22;143;51.634;7.112;2023-02-28T10:15:23;8.50;1.00
314;DHT22;143;51.634;7.112;2023-02-28T10:17:55;8.30;1.00
314;DHT22;143;51.634;7.112;2023-02-28T10:20:24;8.30;1.00
314;DHT22;143;51.634;7.112;2023-02-28T10:23:03;8.50;1.00
314;DHT22;143;51.634;7.112;2023-02-28T10:25:35;8.20;1.00
314;DHT22;143;51.634;7.112;2023-02-28T10:28:12;8.40;1.00
314;DHT22;143;51.634;7.112;2023-02-28T10:30:43;8.50;1.00
314;DHT22;143;51.634;7.112;2023-02-28T10:33:21;8.50;1.00
314;DHT22;143;51.634;7.112;2023-02-28T10:35:48;8.40;1.00
314;DHT22;143;51.634;7.112;2023-02-28T10:38:18;8.50;1.00
314;DHT22;143;51.634;7.112;2023-02-28T10:40:44;8.50;1.00
314;DHT22;143;51.634;7.112;2023-02-28T10:45:39;8.30;1.00
314;DHT22;143;51.634;7.112;2023-02-28T10:50:56;8.20;1.00
314;DHT22;143;51.634;7.112;2023-02-28T10:58:57;8.10;1.00
314;DHT22;143;51.634;7.112;2023-02-28T11:03:52;9.00;1.00
314;DHT22;143;51.634;7.112;2023-02-28T11:06:26;8.80;1.00
314;DHT22;143;51.634;7.112;2023-02-28T11:08:56;9.10;1.00
314;DHT22;143;51.634;7.112;2023-02-28T11:11:25;9.90;1.00
314;DHT22;143;51.634;7.112;2023-02-28T11:13:55;10.20;1.00
314;DHT22;143;51.634;7.112;2023-02-28T11:16:22;10.50;1.00
314;DHT22;143;51.634;7.112;2023-02-28T11:18:57;10.90;1.00
314;DHT22;143;51.634;7.112;2023-02-28T11:21:27;11.20;1.00
314;DHT22;143;51.634;7.112;2023-02-28T11:24:12;10.80;1.00
314;DHT22;143;51.634;7.112;2023-02-28T11:26:45;10.50;1.00
314;DHT22;143;51.634;7.112;2023-02-28T11:31:41;10.80;1.00
314;DHT22;143;51.634;7.112;2023-02-28T11:34:27;11.30;1.00
314;DHT22;143;51.634;7.112;2023-02-28T11:36:54;11.50;1.00
314;DHT22;143;51.634;7.112;2023-02-28T11:39:22;11.40;1.00
314;DHT22;143;51.634;7.112;2023-02-28T11:53:02;11.30;1.00
314;DHT22;143;51.634;7.112;2023-02-28T11:55:39;11.10;1.00
314;DHT22;143;51.634;7.112;2023-02-28T12:08:43;11.80;1.00
314;DHT22;143;51.634;7.112;2023-02-28T12:11:22;11.50;1.00
314;DHT22;143;51.634;7.112;2023-02-28T12:16:44;10.90;1.00
314;DHT22;143;51.634;7.112;2023-02-28T12:19:23;11.00;1.00
314;DHT22;143;51.634;7.112;2023-02-28T12:22:06;11.40;1.00
314;DHT22;143;51.634;7.112;2023-02-28T12:25:13;11.20;1.00
314;DHT22;143;51.634;7.112;2023-02-28T12:27:45;10.90;1.00
314;DHT22;143;51.634;7.112;2023-02-28T12:30:31;10.40;1.00
314;DHT22;143;51.634;7.112;2023-02-28T12:33:15;10.20;1.00
314;DHT22;143;51.634;7.112;2023-02-28T12:35:54;10.60;1.00
314;DHT22;143;51.634;7.112;2023-02-28T12:38:22;10.50;1.00
314;DHT22;143;51.634;7.112;2023-02-28T12:44:00;11.00;1.00
314;DHT22;143;51.634;7.112;2023-02-28T12:46:32;11.50;1.00
314;DHT22;143;51.634;7.112;2023-02-28T12:49:06;11.70;1.00
314;DHT22;143;51.634;7.112;2023-02-28T12:51:35;11.60;1.00
314;DHT22;143;51.634;7.112;2023-02-28T12:57:07;11.90;1.00
314;DHT22;143;51.634;7.112;2023-02-28T12:59:56;11.70;1.00
314;DHT22;143;51.634;7.112;2023-02-28T13:05:24;11.00;1.00
314;DHT22;143;51.634;7.112;2023-02-28T13:10:47;11.10;1.00
314;DHT22;143;51.634;7.112;2023-02-28T13:13:20;11.20;1.00
314;DHT22;143;51.634;7.112;2023-02-28T13:16:10;11.00;1.00
314;DHT22;143;51.634;7.112;2023-02-28T13:18:36;11.00;1.00
314;DHT22;143;51.634;7.112;2023-02-28T13:21:06;11.20;1.00
314;DHT22;143;51.634;7.112;2023-02-28T13:26:16;10.90;1.00
314;DHT22;143;51.634;7.112;2023-02-28T13:31:14;11.00;1.00
314;DHT22;143;51.634;7.112;2023-02-28T13:38:47;11.20;1.00
314;DHT22;143;51.634;7.112;2023-02-28T13:46:29;10.60;1.00
314;DHT22;143;51.634;7.112;2023-02-28T13:48:55;10.70;1.00
314;DHT22;143;51.634;7.112;2023-02-28T13:51:43;10.50;1.00
314;DHT22;143;51.634;7.112;2023-02-28T13:57:24;10.90;1.00
314;DHT22;143;51.634;7.112;2023-02-28T14:00:19;11.00;1.00
314;DHT22;143;51.634;7.112;2023-02-28T14:05:34;11.70;1.00
314;DHT22;143;51.634;7.112;2023-02-28T14:08:13;11.60;1.00
314;DHT22;143;51.634;7.112;2023-02-28T14:10:50;11.80;1.00
314;DHT22;143;51.634;7.112;2023-02-28T14:16:20;11.80;1.00
314;DHT22;143;51.634;7.112;2023-02-28T14:19:03;11.70;1.00
314;DHT22;143;51.634;7.112;2023-02-28T14:21:35;11.60;1.00
314;DHT22;143;51.634;7.112;2023-02-28T14:27:26;11.10;1.00
314;DHT22;143;51.634;7.112;2023-02-28T14:38:33;11.20;1.00
314;DHT22;143;51.634;7.112;2023-02-28T14:41:04;10.90;1.00
314;DHT22;143;51.634;7.112;2023-02-28T14:43:31;10.80;1.00
314;DHT22;143;51.634;7.112;2023-02-28T14:46:02;10.70;1.00
314;DHT22;143;51.634;7.112;2023-02-28T14:48:29;10.70;1.00
314;DHT22;143;51.634;7.112;2023-02-28T14:51:00;10.90;1.00
314;DHT22;143;51.634;7.112;2023-02-28T14:53:29;11.00;1.00
314;DHT22;143;51.634;7.112;2023-02-28T14:55:55;10.70;1.00
314;DHT22;143;51.634;7.112;2023-02-28T15:00:55;10.70;1.00
314;DHT22;143;51.634;7.112;2023-02-28T15:03:28;10.70;1.00
314;DHT22;143;51.634;7.112;2023-02-28T15:06:00;10.60;1.00
314;DHT22;143;51.634;7.112;2023-02-28T15:08:26;10.60;1.00
314;DHT22;143;51.634;7.112;2023-02-28T15:10:58;10.80;1.00
314;DHT22;143;51.634;7.112;2023-02-28T15:13:47;11.00;1.00
314;DHT22;143;51.634;7.112;2023-02-28T15:16:14;11.00;1.00
314;DHT22;143;51.634;7.112;2023-02-28T15:18:50;11.10;1.00
314;DHT22;143;51.634;7.112;2023-02-28T15:21:23;10.90;1.00
314;DHT22;143;51.634;7.112;2023-02-28T15:23:55;10.90;1.00
314;DHT22;143;51.634;7.112;2023-02-28T15:26:27;10.60;1.00
314;DHT22;143;51.634;7.112;2023-02-28T15:29:05;10.50;1.00
314;DHT22;143;51.634;7.112;2023-02-28T15:31:34;10.40;1.00
314;DHT22;143;51.634;7.112;2023-02-28T15:34:06;10.40;1.00
314;DHT22;143;51.634;7.112;2023-02-28T15:36:33;10.60;1.00
314;DHT22;143;51.634;7.112;2023-02-28T15:39:16;10.50;1.00
314;DHT22;143;51.634;7.112;2023-02-28T15:41:43;10.50;1.00
314;DHT22;143;51.634;7.112;2023-02-28T15:44:26;10.60;1.00
314;DHT22;143;51.634;7.112;2023-02-28T15:49:25;10.50;1.00
314;DHT22;143;51.634;7.112;2023-02-28T15:51:52;10.40;1.00
314;DHT22;143;51.634;7.112;2023-02-28T15:54:29;10.40;1.00
314;DHT22;143;51.634;7.112;2023-02-28T15:56:57;10.50;1.00
314;DHT22;143;51.634;7.112;2023-02-28T15:59:26;10.30;1.00
314;DHT22;143;51.634;7.112;2023-02-28T16:02:22;10.20;1.00
314;DHT22;143;51.634;7.112;2023-02-28T16:07:32;10.20;1.00
314;DHT22;143;51.634;7.112;2023-02-28T16:09:58;10.20;1.00
314;DHT22;143;51.634;7.112;2023-02-28T16:12:27;10.30;1.00
314;DHT22;143;51.634;7.112;2023-02-28T16:14:54;10.20;1.00
314;DHT22;143;51.634;7.112;2023-02-28T16:17:25;10.20;1.00
314;DHT22;143;51.634;7.112;2023-02-28T16:19:52;10.30;1.00
314;DHT22;143;51.634;7.112;2023-02-28T16:22:18;10.00;1.00
314;DHT22;143;51.634;7.112;2023-02-28T16:24:44;9.90;1.00
314;DHT22;143;51.634;7.112;2023-02-28T16:27:30;9.80;1.00
314;DHT22;143;51.634;7.112;2023-02-28T16:29:56;9.60;1.00
314;DHT22;143;51.634;7.112;2023-02-28T16:32:22;9.60;1.00
314;DHT22;143;51.634;7.112;2023-02-28T16:34:48;9.60;1.00
314;DHT22;143;51.634;7.112;2023-02-28T16:37:16;9.60;1.00
314;DHT22;143;51.634;7.112;2023-02-28T16:39:43;9.10;1.00
314;DHT22;143;51.634;7.112;2023-02-28T16:42:29;9.50;1.00
314;DHT22;143;51.634;7.112;2023-02-28T16:44:56;9.00;1.00
314;DHT22;143;51.634;7.112;2023-02-28T16:47:23;8.80;1.00
314;DHT22;143;51.634;7.112;2023-02-28T16:49:49;9.00;1.00
314;DHT22;143;51.634;7.112;2023-02-28T16:52:15;8.90;1.00
314;DHT22;143;51.634;7.112;2023-02-28T16:54:41;8.70;1.00
314;DHT22;143;51.634;7.112;2023-02-28T16:57:26;8.60;1.00
314;DHT22;143;51.634;7.112;2023-02-28T16:59:51;8.50;1.00
314;DHT22;143;51.634;7.112;2023-02-28T17:02:19;8.60;1.00
314;DHT22;143;51.634;7.112;2023-02-28T17:04:46;8.50;1.00
314;DHT22;143;51.634;7.112;2023-02-28T17:07:15;8.50;1.00
314;DHT22;143;51.634;7.112;2023-02-28T17:09:44;8.10;1.00
314;DHT22;143;51.634;7.112;2023-02-28T17:12:10;8.10;1.00
314;DHT22;143;51.634;7.112;2023-02-28T17:14:37;8.40;1.00
314;DHT22;143;51.634;7.112;2023-02-28T17:17:04;8.00;1.00
314;DHT22;143;51.634;7.112;2023-02-28T17:19:30;7.90;1.00
314;DHT22;143;51.634;7.112;2023-02-28T17:21:56;7.90;1.00
314;DHT22;143;51.634;7.112;2023-02-28T17:24:21;7.90;1.00
314;DHT22;143;51.634;7.112;2023-02-28T17:26:47;8.00;1.00
314;DHT22;143;51.634;7.112;2023-02-28T17:29:18;7.90;1.00
314;DHT22;143;51.634;7.112;2023-02-28T17:31:44;7.70;1.00
314;DHT22;143;51.634;7.112;2023-02-28T17:34:10;7.60;1.00
314;DHT22;143;51.634;7.112;2023-02-28T17:36:36;7.60;1.00
314;DHT22;143;51.634;7.112;2023-02-28T17:39:04;7.20;1.00
314;DHT22;143;51.634;7.112;2023-02-28T17:41:34;7.60;1.00
314;DHT22;143;51.634;7.112;2023-02-28T17:43:59;7.30;1.00
314;DHT22;143;51.634;7.112;2023-02-28T17:46:25;7.10;1.00
314;DHT22;143;51.634;7.112;2023-02-28T17:48:52;7.10;1.00
314;DHT22;143;51.634;7.112;2023-02-28T17:51:20;7.00;1.00
314;DHT22;143;51.634;7.112;2023-02-28T17:53:46;7.30;1.00
314;DHT22;143;51.634;7.112;2023-02-28T17:56:21;7.00;1.00
314;DHT22;143;51.634;7.112;2023-02-28T17:58:48;7.00;1.00
314;DHT22;143;51.634;7.112;2023-02-28T18:01:14;6.80;1.00
314;DHT22;143;51.634;7.112;2023-02-28T18:03:40;6.80;1.00
314;DHT22;143;51.634;7.112;2023-02-28T18:06:13;6.70;1.00
314;DHT22;143;51.634;7.112;2023-02-28T18:08:39;6.70;1.00
314;DHT22;143;51.634;7.112;2023-02-28T18:11:06;6.70;1.00
314;DHT22;143;51.634;7.112;2023-02-28T18:13:43;6.70;1.00
314;DHT22;143;51.634;7.112;2023-02-28T18:16:10;6.50;1.00
314;DHT22;143;51.634;7.112;2023-02-28T18:18:36;6.50;1.00
314;DHT22;143;51.634;7.112;2023-02-28T18:21:08;6.50;1.00
314;DHT22;143;51.634;7.112;2023-02-28T18:23:34;6.50;1.00
314;DHT22;143;51.634;7.112;2023-02-28T18:26:00;6.20;1.00
314;DHT22;143;51.634;7.112;2023-02-28T18:28:26;6.40;1.00
314;DHT22;143;51.634;7.112;2023-02-28T18:30:52;6.00;1.00
314;DHT22;143;51.634;7.112;2023-02-28T18:33:17;6.00;1.00
314;DHT22;143;51.634;7.112;2023-02-28T18:35:44;5.90;1.00
314;DHT22;143;51.634;7.112;2023-02-28T18:38:14;5.90;1.00
314;DHT22;143;51.634;7.112;2023-02-28T18:40:41;6.00;1.00
314;DHT22;143;51.634;7.112;2023-02-28T18:43:08;6.20;1.00
314;DHT22;143;51.634;7.112;2023-02-28T18:45:38;5.70;1.00
314;DHT22;143;51.634;7.112;2023-02-28T18:48:04;5.60;1.00
314;DHT22;143;51.634;7.112;2023-02-28T18:50:30;5.60;1.00
314;DHT22;143;51.634;7.112;2023-02-28T18:52:56;5.80;1.00
314;DHT22;143;51.634;7.112;2023-02-28T18:55:23;5.60;1.00
314;DHT22;143;51.634;7.112;2023-02-28T18:57:49;5.70;1.00
314;DHT22;143;51.634;7.112;2023-02-28T19:00:15;5.80;1.00
314;DHT22;143;51.634;7.112;2023-02-28T19:02:44;5.40;1.00
314;DHT22;143;51.634;7.112;2023-02-28T19:05:10;5.40;1.00
314;DHT22;143;51.634;7.112;2023-02-28T19:07:36;5.30;1.00
314;DHT22;143;51.634;7.112;2023-02-28T19:10:03;5.40;1.00
314;DHT22;143;51.634;7.112;2023-02-28T19:12:32;5.40;1.00
314;DHT22;143;51.634;7.112;2023-02-28T19:14:58;5.30;1.00
314;DHT22;143;51.634;7.112;2023-02-28T19:17:24;5.30;1.00
314;DHT22;143;51.634;7.112;2023-02-28T19:19:50;5.20;1.00
314;DHT22;143;51.634;7.112;2023-02-28T19:22:16;5.20;1.00
314;DHT22;143;51.634;7.112;2023-02-28T19:24:42;5.10;1.00